Time;durP1;ratioP1;P1;durP2;ratioP2;P2;SDS_P1;SDS_P2;PMS_P1;PMS_P2;Temp;Humidity;BMP_temperature;BMP_pressure;BME280_temperature;BME280_humidity;BME280_pressure;Samples;Min_cycle;Max_cycle;Signal;HPM_P1;HPM_P2
2023/07/03 04:02:32;;;;;;;;;;;17.30;93.80;;;;;;6470068;23;2109;-78
2023/07/03 04:05:34;;;;;;;;;;;17.30;93.50;;;;;;6152334;29;1816;-74
2023/07/03 04:08:36;;;;;;;;;;;17.30;93.40;;;;;;6152741;28;1111;-75
2023/07/03 04:11:38;;;;;;;;;;;17.30;93.20;;;;;;6152160;29;1419;-77
2023/07/03 04:14:40;;;;;;;;;;;17.30;93.10;;;;;;6152603;29;1123;-76
2023/07/03 04:17:43;;;;;;;;;;;17.40;93.00;;;;;;6150990;29;1532;-75
2023/07/03 04:20:45;;;;;;;;;;;17.40;93.00;;;;;;6152301;29;1978;-76
2023/07/03 04:23:46;;;;;;;;;;;17.40;92.90;;;;;;6152084;29;1088;-75
2023/07/03 04:26:48;;;;;;;;;;;17.50;92.90;;;;;;6152572;29;1074;-75
2023/07/03 04:29:49;;;;;;;;;;;17.50;92.90;;;;;;6152576;29;1047;-76
2023/07/03 04:32:54;;;;;;;;;;;17.50;92.80;;;;;;6152650;29;1040;-77
2023/07/03 04:35:56;;;;;;;;;;;17.60;92.80;;;;;;6152300;29;1131;-75
2023/07/03 04:38:58;;;;;;;;;;;17.60;92.60;;;;;;6152647;29;1052;-76
2023/07/03 04:42:00;;;;;;;;;;;17.70;92.60;;;;;;6152498;28;1985;-74
2023/07/03 04:45:02;;;;;;;;;;;17.70;92.30;;;;;;6152682;28;1087;-76
2023/07/03 04:48:06;;;;;;;;;;;17.70;92.20;;;;;;6152285;29;1090;-75
2023/07/03 04:51:08;;;;;;;;;;;17.70;92.20;;;;;;6152201;29;1067;-75
2023/07/03 04:54:09;;;;;;;;;;;17.80;92.20;;;;;;6152235;29;1095;-75
2023/07/03 04:57:11;;;;;;;;;;;17.70;92.20;;;;;;6152203;29;1280;-76
2023/07/03 05:00:15;;;;;;;;;;;17.80;92.10;;;;;;6151338;29;2726;-76
2023/07/03 05:03:18;;;;;;;;;;;17.90;92.00;;;;;;6128347;29;1112;-77
2023/07/03 05:06:20;;;;;;;;;;;17.90;91.90;;;;;;6129626;29;1035;-74
2023/07/03 05:09:22;;;;;;;;;;;17.90;92.00;;;;;;6133174;29;1149;-76
2023/07/03 05:12:23;;;;;;;;;;;17.90;92.00;;;;;;6134445;29;1031;-75
2023/07/03 05:15:25;;;;;;;;;;;18.00;92.10;;;;;;6134248;29;1044;-75
2023/07/03 05:18:28;;;;;;;;;;;18.00;92.00;;;;;;6133605;29;1019;-77
2023/07/03 05:21:30;;;;;;;;;;;18.00;92.00;;;;;;6133057;29;1906;-75
2023/07/03 05:24:31;;;;;;;;;;;18.00;92.10;;;;;;6133055;29;1222;-75
2023/07/03 05:27:33;;;;;;;;;;;18.10;92.00;;;;;;6136289;29;1064;-76
2023/07/03 05:30:35;;;;;;;;;;;18.20;91.90;;;;;;6133775;29;1113;-76
2023/07/03 05:33:38;;;;;;;;;;;18.20;91.80;;;;;;6132871;29;1023;-73
2023/07/03 05:36:40;;;;;;;;;;;18.20;91.80;;;;;;6136259;29;1042;-76
2023/07/03 05:39:44;;;;;;;;;;;18.30;91.80;;;;;;6135282;29;1879;-76
2023/07/03 05:42:46;;;;;;;;;;;18.20;91.80;;;;;;6133277;29;1011;-76
2023/07/03 05:45:49;;;;;;;;;;;18.30;91.80;;;;;;6134554;29;1789;-74
2023/07/03 05:48:52;;;;;;;;;;;18.30;91.70;;;;;;6133233;29;1091;-76
2023/07/03 05:51:53;;;;;;;;;;;18.40;91.60;;;;;;6136239;29;1059;-75
2023/07/03 05:54:55;;;;;;;;;;;18.50;91.40;;;;;;6134709;29;2027;-75
2023/07/03 05:57:57;;;;;;;;;;;18.40;91.50;;;;;;6156709;29;1102;-75
2023/07/03 06:01:00;;;;;;;;;;;18.50;91.30;;;;;;6157276;28;1883;-76
2023/07/03 06:04:03;;;;;;;;;;;18.50;91.40;;;;;;6158610;29;1088;-75
2023/07/03 06:07:06;;;;;;;;;;;18.60;91.30;;;;;;6155823;28;3054;-76
2023/07/03 06:10:08;;;;;;;;;;;18.60;91.40;;;;;;6144298;29;1094;-76
2023/07/03 06:13:10;;;;;;;;;;;18.70;91.40;;;;;;6140824;29;1024;-74
2023/07/03 06:16:12;;;;;;;;;;;18.80;91.40;;;;;;6141493;29;1115;-74
2023/07/03 06:19:16;;;;;;;;;;;18.80;91.40;;;;;;6144061;29;1120;-76
2023/07/03 06:22:18;;;;;;;;;;;18.90;91.20;;;;;;6136206;29;1969;-75
2023/07/03 06:25:20;;;;;;;;;;;18.90;91.10;;;;;;6131669;29;1035;-75
2023/07/03 06:28:21;;;;;;;;;;;19.00;90.90;;;;;;6131455;29;1088;-75
2023/07/03 06:31:23;;;;;;;;;;;19.00;90.70;;;;;;6131469;29;1180;-75
2023/07/03 06:34:26;;;;;;;;;;;18.90;90.60;;;;;;6131428;29;1069;-76
2023/07/03 06:37:28;;;;;;;;;;;19.00;90.70;;;;;;6131261;29;1051;-76
2023/07/03 06:40:30;;;;;;;;;;;19.10;90.30;;;;;;6130793;29;1898;-76
2023/07/03 06:43:31;;;;;;;;;;;19.20;90.40;;;;;;6130703;29;1136;-74
2023/07/03 06:46:33;;;;;;;;;;;19.30;90.40;;;;;;6130641;29;1092;-74
2023/07/03 06:49:36;;;;;;;;;;;19.30;90.30;;;;;;6130599;29;1901;-74
2023/07/03 06:52:38;;;;;;;;;;;19.40;90.30;;;;;;6130738;29;1035;-76
2023/07/03 06:55:40;;;;;;;;;;;19.50;89.70;;;;;;6130706;29;1055;-77
2023/07/03 06:58:42;;;;;;;;;;;19.50;90.00;;;;;;6130767;29;1031;-76
2023/07/03 07:01:43;;;;;;;;;;;19.50;89.60;;;;;;6130302;29;1900;-75
2023/07/03 07:04:46;;;;;;;;;;;19.60;90.00;;;;;;6130656;29;1110;-74
2023/07/03 07:07:48;;;;;;;;;;;19.70;89.40;;;;;;6130461;29;1201;-75
2023/07/03 07:10:50;;;;;;;;;;;19.70;88.60;;;;;;6130411;29;1106;-75
2023/07/03 07:13:52;;;;;;;;;;;19.70;89.10;;;;;;6129948;29;1978;-74
2023/07/03 07:16:54;;;;;;;;;;;19.70;88.40;;;;;;6129906;29;1094;-76
2023/07/03 07:19:58;;;;;;;;;;;19.80;88.90;;;;;;6130013;29;1900;-74
2023/07/03 07:22:59;;;;;;;;;;;19.90;87.90;;;;;;6129843;29;1052;-73
2023/07/03 07:26:01;;;;;;;;;;;19.90;87.60;;;;;;6129924;29;1044;-74
2023/07/03 07:29:03;;;;;;;;;;;20.00;87.70;;;;;;6129081;29;1040;-74
2023/07/03 07:32:06;;;;;;;;;;;20.10;88.20;;;;;;6129767;29;1039;-76
2023/07/03 07:35:09;;;;;;;;;;;20.10;87.80;;;;;;6129439;29;1089;-75
2023/07/03 07:38:11;;;;;;;;;;;20.10;86.30;;;;;;6129604;29;1044;-76
2023/07/03 07:41:13;;;;;;;;;;;20.10;85.80;;;;;;6129235;29;1895;-76
2023/07/03 07:44:14;;;;;;;;;;;20.20;86.50;;;;;;6129262;29;1120;-75
2023/07/03 07:47:16;;;;;;;;;;;20.30;85.50;;;;;;6129450;29;1084;-75
2023/07/03 07:50:19;;;;;;;;;;;20.40;85.80;;;;;;6129522;29;1015;-74
2023/07/03 07:53:21;;;;;;;;;;;20.30;84.70;;;;;;6129427;29;1067;-75
2023/07/03 07:56:23;;;;;;;;;;;20.40;84.80;;;;;;6129129;29;1102;-76
2023/07/03 07:59:25;;;;;;;;;;;20.30;84.10;;;;;;6129209;29;1083;-75
2023/07/03 08:02:27;;;;;;;;;;;20.30;84.50;;;;;;6128660;29;2954;-75
2023/07/03 08:05:31;;;;;;;;;;;20.40;83.90;;;;;;6128970;29;1082;-73
2023/07/03 08:08:33;;;;;;;;;;;20.40;83.60;;;;;;6128869;29;1019;-75
2023/07/03 08:11:35;;;;;;;;;;;20.40;84.20;;;;;;6129153;29;1031;-74
2023/07/03 08:14:37;;;;;;;;;;;20.50;83.80;;;;;;6128955;29;1007;-76
2023/07/03 08:17:38;;;;;;;;;;;20.50;83.60;;;;;;6128989;29;1071;-75
2023/07/03 08:20:41;;;;;;;;;;;20.40;84.10;;;;;;6128838;29;1899;-75
2023/07/03 08:23:43;;;;;;;;;;;20.40;82.60;;;;;;6129077;29;1114;-74
2023/07/03 08:26:49;;;;;;;;;;;20.30;82.80;;;;;;6129029;29;1030;-74
2023/07/03 08:29:51;;;;;;;;;;;20.20;83.00;;;;;;6129095;29;1144;-75
2023/07/03 08:32:52;;;;;;;;;;;20.30;82.50;;;;;;6128838;29;1118;-75
2023/07/03 08:35:55;;;;;;;;;;;20.30;82.70;;;;;;6128722;29;1066;-77
2023/07/03 08:38:57;;;;;;;;;;;20.40;82.70;;;;;;6128797;29;1070;-73
2023/07/03 08:42:02;;;;;;;;;;;20.40;83.10;;;;;;6130385;29;1903;-74
2023/07/03 08:45:05;;;;;;;;;;;20.50;83.40;;;;;;6133479;29;1035;-73
2023/07/03 08:48:13;;;;;;;;;;;20.60;82.20;;;;;;6133283;29;1217;-73
2023/07/03 08:51:18;;;;;;;;;;;20.70;82.40;;;;;;6133524;29;1068;-74
2023/07/03 08:54:23;;;;;;;;;;;20.80;79.80;;;;;;6132915;29;1170;-74
2023/07/03 08:57:25;;;;;;;;;;;20.90;80.90;;;;;;6133196;29;1075;-74
2023/07/03 09:00:28;;;;;;;;;;;20.90;80.70;;;;;;6132803;29;1964;-75
2023/07/03 09:03:35;;;;;;;;;;;21.00;78.80;;;;;;6133233;29;1365;-74
2023/07/03 09:06:43;;;;;;;;;;;21.10;79.60;;;;;;6132941;29;1246;-74
2023/07/03 09:09:50;;;;;;;;;;;21.30;79.90;;;;;;6133065;29;1039;-74
2023/07/03 09:12:58;;;;;;;;;;;21.30;79.40;;;;;;6133177;29;1062;-75
2023/07/03 09:16:03;;;;;;;;;;;21.40;76.10;;;;;;6132508;29;1159;-76
2023/07/03 09:19:07;;;;;;;;;;;21.40;75.60;;;;;;6132525;29;1148;-75
2023/07/03 09:22:16;;;;;;;;;;;21.40;74.10;;;;;;6132581;29;1910;-75
2023/07/03 09:25:22;;;;;;;;;;;21.40;74.10;;;;;;6132321;29;1060;-74
2023/07/03 09:28:24;;;;;;;;;;;21.50;73.80;;;;;;6132472;29;1143;-74
2023/07/03 09:31:27;;;;;;;;;;;21.60;73.40;;;;;;6132254;29;1112;-75
2023/07/03 09:35:01;;;;;;;;;;;21.70;73.80;;;;;;6132425;29;1072;-73
2023/07/03 09:38:05;;;;;;;;;;;21.70;72.40;;;;;;6131852;29;1076;-75
2023/07/03 09:41:07;;;;;;;;;;;21.70;71.60;;;;;;6132136;29;1976;-75
2023/07/03 09:44:12;;;;;;;;;;;21.60;73.50;;;;;;6132155;29;1039;-76
2023/07/03 09:47:17;;;;;;;;;;;21.80;73.00;;;;;;6132057;29;1035;-74
2023/07/03 09:50:25;;;;;;;;;;;21.70;70.70;;;;;;6132114;29;1102;-75
2023/07/03 09:53:27;;;;;;;;;;;21.80;71.70;;;;;;6131661;29;1050;-74
2023/07/03 09:56:30;;;;;;;;;;;21.70;70.70;;;;;;6131965;29;1547;-75
2023/07/03 09:59:32;;;;;;;;;;;21.70;70.70;;;;;;6132053;29;1122;-75
2023/07/03 10:02:33;;;;;;;;;;;21.80;71.40;;;;;;6131530;29;1903;-75
2023/07/03 10:05:36;;;;;;;;;;;21.90;70.00;;;;;;6131525;29;1166;-75
2023/07/03 10:08:41;;;;;;;;;;;22.10;70.10;;;;;;6131544;29;1054;-74
2023/07/03 10:11:46;;;;;;;;;;;22.10;68.80;;;;;;6131344;29;1088;-75
2023/07/03 10:14:51;;;;;;;;;;;22.00;68.40;;;;;;6131389;29;1151;-73
2023/07/03 10:17:55;;;;;;;;;;;22.00;69.00;;;;;;6131663;29;1036;-73
2023/07/03 10:21:01;;;;;;;;;;;22.10;68.70;;;;;;6131542;29;1899;-73
2023/07/03 10:24:03;;;;;;;;;;;22.20;69.00;;;;;;6131684;29;1084;-74
2023/07/03 10:27:06;;;;;;;;;;;22.20;69.50;;;;;;6131623;29;1918;-75
2023/07/03 10:30:15;;;;;;;;;;;22.20;67.90;;;;;;6131536;29;1032;-74
2023/07/03 10:33:20;;;;;;;;;;;22.30;67.90;;;;;;6131746;29;1011;-75
2023/07/03 10:36:26;;;;;;;;;;;22.40;67.40;;;;;;6131261;29;1094;-75
2023/07/03 10:39:33;;;;;;;;;;;22.50;67.20;;;;;;6131275;29;1027;-75
2023/07/03 10:42:37;;;;;;;;;;;22.40;67.50;;;;;;6131001;29;1977;-75
2023/07/03 10:45:39;;;;;;;;;;;22.20;67.90;;;;;;6131462;29;1126;-75
2023/07/03 10:48:41;;;;;;;;;;;22.10;68.10;;;;;;6130998;29;1159;-75
2023/07/03 10:51:53;;;;;;;;;;;22.20;68.40;;;;;;6131000;29;1044;-76
2023/07/03 10:55:02;;;;;;;;;;;22.40;66.60;;;;;;6130704;29;1094;-74
2023/07/03 10:58:09;;;;;;;;;;;22.50;66.30;;;;;;6130664;29;1260;-75
2023/07/03 11:01:18;;;;;;;;;;;22.60;66.80;;;;;;6130120;29;1987;-75
2023/07/03 11:04:22;;;;;;;;;;;22.70;65.20;;;;;;6130024;29;1072;-75
2023/07/03 11:07:30;;;;;;;;;;;23.00;66.00;;;;;;6130517;29;1023;-75
2023/07/03 11:10:37;;;;;;;;;;;22.70;64.70;;;;;;6130431;29;1055;-76
2023/07/03 11:13:49;;;;;;;;;;;22.60;65.80;;;;;;6131397;29;1098;-75
2023/07/03 11:16:59;;;;;;;;;;;22.50;66.30;;;;;;6132770;29;1080;-77
2023/07/03 11:20:06;;;;;;;;;;;22.40;65.00;;;;;;6131950;29;1239;-77
2023/07/03 11:23:17;;;;;;;;;;;22.60;65.90;;;;;;6130641;29;1903;-76
2023/07/03 11:26:24;;;;;;;;;;;22.70;63.90;;;;;;6130220;29;1089;-75
2023/07/03 11:29:26;;;;;;;;;;;22.80;64.00;;;;;;6130286;29;1098;-74
2023/07/03 11:32:27;;;;;;;;;;;22.80;64.00;;;;;;6129963;29;1107;-75
2023/07/03 11:35:29;;;;;;;;;;;22.90;63.80;;;;;;6129943;29;1039;-75
2023/07/03 11:38:35;;;;;;;;;;;22.70;62.60;;;;;;6129875;29;1032;-75
2023/07/03 11:41:44;;;;;;;;;;;22.80;63.20;;;;;;6129654;29;1902;-76
2023/07/03 11:44:48;;;;;;;;;;;22.90;62.50;;;;;;6129566;29;1011;-75
2023/07/03 11:47:49;;;;;;;;;;;22.90;62.40;;;;;;6129294;29;1092;-73
2023/07/03 11:50:56;;;;;;;;;;;23.10;63.00;;;;;;6129275;29;1290;-75
2023/07/03 11:53:59;;;;;;;;;;;23.30;63.80;;;;;;6129233;29;1088;-76
2023/07/03 11:57:04;;;;;;;;;;;23.30;61.90;;;;;;6129238;29;1087;-75
2023/07/03 12:00:18;;;;;;;;;;;23.30;62.30;;;;;;6128950;29;961;-75
2023/07/03 12:03:49;;;;;;;;;;;23.20;63.20;;;;;;6128968;29;1968;-77
2023/07/03 12:06:51;;;;;;;;;;;23.20;63.80;;;;;;6129362;29;1036;-74
2023/07/03 12:10:33;;;;;;;;;;;23.10;63.10;;;;;;6129247;29;1059;-75
2023/07/03 12:13:51;;;;;;;;;;;23.10;63.70;;;;;;6128908;29;1270;-75
2023/07/03 12:16:53;;;;;;;;;;;23.10;63.90;;;;;;6128726;29;1023;-75
2023/07/03 12:19:58;;;;;;;;;;;23.20;63.30;;;;;;6129211;29;1110;-73
2023/07/03 12:23:00;;;;;;;;;;;23.40;63.10;;;;;;6129125;29;1973;-75
2023/07/03 12:26:02;;;;;;;;;;;23.40;62.60;;;;;;6129167;29;1102;-76
2023/07/03 12:29:05;;;;;;;;;;;23.20;63.30;;;;;;6128779;29;1031;-75
2023/07/03 12:32:08;;;;;;;;;;;23.20;62.90;;;;;;6129074;29;1051;-75
2023/07/03 12:35:12;;;;;;;;;;;23.30;63.50;;;;;;6129663;29;1074;-75
2023/07/03 12:38:14;;;;;;;;;;;23.50;61.80;;;;;;6128998;29;1083;-74
2023/07/03 12:41:21;;;;;;;;;;;23.50;61.20;;;;;;6128674;29;1035;-75
2023/07/03 12:44:25;;;;;;;;;;;23.50;61.60;;;;;;6128807;29;1007;-73
2023/07/03 12:47:26;;;;;;;;;;;23.60;62.60;;;;;;6128468;29;1147;-76
2023/07/03 12:50:28;;;;;;;;;;;23.70;61.50;;;;;;6128657;29;1110;-75
2023/07/03 12:53:34;;;;;;;;;;;23.80;62.00;;;;;;6128510;29;1026;-76
2023/07/03 12:56:37;;;;;;;;;;;24.00;62.20;;;;;;6128684;29;1117;-75
2023/07/03 12:59:47;;;;;;;;;;;24.20;62.50;;;;;;6128647;29;1031;-77
2023/07/03 13:02:48;;;;;;;;;;;24.30;61.40;;;;;;6128213;29;1991;-74
2023/07/03 13:05:50;;;;;;;;;;;24.30;60.20;;;;;;6128451;29;1043;-73
2023/07/03 13:08:54;;;;;;;;;;;24.30;60.50;;;;;;6128219;29;1086;-75
2023/07/03 13:11:55;;;;;;;;;;;24.30;60.50;;;;;;6128371;29;1075;-75
2023/07/03 13:15:07;;;;;;;;;;;24.10;59.60;;;;;;6128169;29;1043;-75
2023/07/03 13:18:15;;;;;;;;;;;24.00;60.30;;;;;;6128112;29;1096;-76
2023/07/03 13:21:20;;;;;;;;;;;24.00;59.70;;;;;;6128273;29;1016;-75
2023/07/03 13:24:23;;;;;;;;;;;24.40;59.40;;;;;;6128188;29;1971;-76
2023/07/03 13:27:27;;;;;;;;;;;24.60;59.60;;;;;;6128990;29;1063;-76
2023/07/03 13:30:35;;;;;;;;;;;24.60;58.80;;;;;;6132473;29;1095;-75
2023/07/03 13:33:38;;;;;;;;;;;24.50;59.20;;;;;;6132497;29;1086;-75
2023/07/03 13:36:43;;;;;;;;;;;24.40;60.00;;;;;;6132405;29;1070;-74
2023/07/03 13:39:45;;;;;;;;;;;24.50;60.00;;;;;;6132194;29;1008;-73
2023/07/03 13:42:56;;;;;;;;;;;24.70;59.70;;;;;;6132263;29;1898;-77
2023/07/03 13:46:00;;;;;;;;;;;24.70;59.80;;;;;;6132328;29;1114;-77
2023/07/03 13:49:03;;;;;;;;;;;24.90;59.60;;;;;;6132283;29;1003;-75
2023/07/03 13:52:05;;;;;;;;;;;24.90;60.00;;;;;;6132394;29;1023;-77
2023/07/03 13:55:08;;;;;;;;;;;24.70;58.00;;;;;;6132184;29;1450;-73
2023/07/03 13:58:10;;;;;;;;;;;24.60;58.50;;;;;;6131952;29;1100;-75
2023/07/03 14:01:13;;;;;;;;;;;24.50;60.00;;;;;;6131749;29;1093;-74
2023/07/03 14:04:15;;;;;;;;;;;24.50;59.90;;;;;;6131898;29;1915;-75
2023/07/03 14:07:16;;;;;;;;;;;24.70;60.40;;;;;;6131841;29;1052;-74
2023/07/03 14:10:18;;;;;;;;;;;25.00;58.70;;;;;;6132013;29;2064;-74
2023/07/03 14:13:20;;;;;;;;;;;25.30;58.20;;;;;;6131906;29;1088;-75
2023/07/03 14:16:23;;;;;;;;;;;25.40;58.40;;;;;;6132168;29;1054;-75
2023/07/03 14:19:25;;;;;;;;;;;25.20;58.70;;;;;;6131714;29;1110;-75
2023/07/03 14:22:26;;;;;;;;;;;25.10;58.10;;;;;;6131778;29;1980;-76
2023/07/03 14:25:28;;;;;;;;;;;25.00;57.60;;;;;;6131631;29;1074;-75
2023/07/03 14:28:30;;;;;;;;;;;24.90;58.00;;;;;;6132206;29;1143;-74
2023/07/03 14:31:33;;;;;;;;;;;24.90;58.60;;;;;;6131516;29;1071;-76
2023/07/03 14:34:35;;;;;;;;;;;25.00;58.30;;;;;;6131261;29;1100;-75
2023/07/03 14:37:37;;;;;;;;;;;25.20;58.40;;;;;;6131635;29;1027;-75
2023/07/03 14:40:39;;;;;;;;;;;25.30;57.60;;;;;;6130012;29;1023;-77
2023/07/03 14:43:41;;;;;;;;;;;25.40;57.40;;;;;;6131914;29;1911;-75
2023/07/03 14:46:44;;;;;;;;;;;25.60;56.90;;;;;;6131273;29;1090;-73
2023/07/03 14:49:46;;;;;;;;;;;25.90;57.10;;;;;;6131447;29;1039;-76
2023/07/03 14:52:48;;;;;;;;;;;26.00;56.40;;;;;;6150649;29;1458;-79
2023/07/03 14:55:54;;;;;;;;;;;25.60;57.40;;;;;;6155027;29;1052;-79
2023/07/03 14:58:56;;;;;;;;;;;25.50;57.50;;;;;;6154755;29;1131;-77
2023/07/03 15:01:59;;;;;;;;;;;25.40;57.30;;;;;;6150432;29;1498;-75
2023/07/03 15:05:01;;;;;;;;;;;25.80;57.60;;;;;;6151945;29;1985;-77
2023/07/03 15:08:02;;;;;;;;;;;26.20;56.50;;;;;;6152911;29;1064;-78
2023/07/03 15:11:05;;;;;;;;;;;26.50;55.70;;;;;;6151183;29;1481;-77
2023/07/03 15:14:08;;;;;;;;;;;26.40;55.50;;;;;;6150326;28;1459;-71
2023/07/03 15:17:11;;;;;;;;;;;26.40;56.00;;;;;;6150401;29;1407;-69
2023/07/03 15:20:14;;;;;;;;;;;26.30;56.30;;;;;;6150863;29;1080;-70
2023/07/03 15:23:15;;;;;;;;;;;26.40;55.80;;;;;;6150043;29;1961;-70
2023/07/03 15:26:17;;;;;;;;;;;26.50;55.60;;;;;;6149917;29;1384;-69
2023/07/03 15:29:19;;;;;;;;;;;26.80;55.00;;;;;;6148451;29;1466;-69
2023/07/03 15:32:23;;;;;;;;;;;26.80;55.80;;;;;;6150823;29;1098;-69
2023/07/03 15:35:24;;;;;;;;;;;26.70;55.10;;;;;;6152427;29;1118;-69
2023/07/03 15:38:26;;;;;;;;;;;26.90;55.30;;;;;;6152441;29;2050;-71
2023/07/03 15:41:28;;;;;;;;;;;27.10;55.40;;;;;;6152855;29;1403;-74
2023/07/03 15:44:29;;;;;;;;;;;27.50;54.40;;;;;;6153155;28;1899;-74
2023/07/03 15:47:35;;;;;;;;;;;27.50;53.80;;;;;;6153269;29;1195;-74
2023/07/03 15:50:37;;;;;;;;;;;27.70;53.60;;;;;;6131303;29;1446;-75
2023/07/03 15:53:39;;;;;;;;;;;27.70;53.90;;;;;;6129982;29;1040;-74
2023/07/03 15:56:40;;;;;;;;;;;27.60;53.50;;;;;;6129664;29;1039;-74
2023/07/03 15:59:43;;;;;;;;;;;27.70;53.50;;;;;;6135524;29;1358;-75
2023/07/03 16:02:46;;;;;;;;;;;27.80;53.30;;;;;;6152831;29;1968;-74
2023/07/03 16:05:55;;;;;;;;;;;27.70;52.60;;;;;;6152981;29;1102;-74
2023/07/03 16:08:58;;;;;;;;;;;27.50;53.20;;;;;;6149841;29;1418;-75
2023/07/03 16:12:00;;;;;;;;;;;27.90;53.40;;;;;;6152888;29;1413;-76
2023/07/03 16:15:02;;;;;;;;;;;28.50;53.80;;;;;;6147804;29;1353;-75
2023/07/03 16:18:05;;;;;;;;;;;28.80;51.70;;;;;;6146550;29;1402;-75
2023/07/03 16:21:09;;;;;;;;;;;28.70;51.70;;;;;;6152618;28;2083;-73
2023/07/03 16:24:10;;;;;;;;;;;28.50;51.70;;;;;;6153047;29;1969;-74
2023/07/03 16:27:12;;;;;;;;;;;28.80;51.60;;;;;;6140431;29;1323;-76
2023/07/03 16:30:15;;;;;;;;;;;28.80;51.00;;;;;;6140121;28;2507;-75
2023/07/03 16:33:18;;;;;;;;;;;28.90;51.30;;;;;;6147880;28;2625;-73
2023/07/03 16:36:21;;;;;;;;;;;29.00;51.50;;;;;;6153059;28;1067;-74
2023/07/03 16:39:23;;;;;;;;;;;29.00;51.50;;;;;;6151640;29;2439;-75
2023/07/03 16:42:25;;;;;;;;;;;28.90;51.40;;;;;;6154987;29;1774;-73
2023/07/03 16:45:26;;;;;;;;;;;29.10;51.20;;;;;;6152686;29;1974;-73
2023/07/03 16:48:31;;;;;;;;;;;29.50;51.20;;;;;;6152752;29;1597;-74
2023/07/03 16:51:32;;;;;;;;;;;28.90;50.20;;;;;;6152545;29;2581;-74
2023/07/03 16:54:34;;;;;;;;;;;28.40;51.10;;;;;;6151481;28;1318;-75
2023/07/03 16:57:36;;;;;;;;;;;28.00;52.50;;;;;;6152191;28;1119;-76
2023/07/03 17:00:41;;;;;;;;;;;27.70;52.50;;;;;;6135349;29;1295;-74
2023/07/03 17:03:44;;;;;;;;;;;27.40;52.80;;;;;;6130434;29;1899;-71
2023/07/03 17:06:46;;;;;;;;;;;27.20;53.80;;;;;;6131850;29;2036;-71
2023/07/03 17:09:48;;;;;;;;;;;27.10;54.00;;;;;;6142060;29;1312;-74
2023/07/03 17:12:49;;;;;;;;;;;27.00;54.40;;;;;;6154309;29;1099;-73
2023/07/03 17:15:51;;;;;;;;;;;26.70;54.40;;;;;;6152905;28;2932;-73
2023/07/03 17:18:54;;;;;;;;;;;26.50;54.70;;;;;;6152685;29;1810;-74
2023/07/03 17:21:56;;;;;;;;;;;26.40;54.90;;;;;;6154557;29;2832;-73
2023/07/03 17:24:58;;;;;;;;;;;26.10;54.70;;;;;;6152902;29;3010;-75
2023/07/03 17:28:00;;;;;;;;;;;26.00;55.40;;;;;;6163757;28;1866;-74
2023/07/03 17:31:04;;;;;;;;;;;25.90;55.40;;;;;;6162278;28;1989;-74
2023/07/03 17:34:07;;;;;;;;;;;25.90;55.70;;;;;;6161154;29;1375;-74
2023/07/03 17:37:08;;;;;;;;;;;26.30;55.80;;;;;;6162657;29;1222;-74
2023/07/03 17:40:12;;;;;;;;;;;26.40;55.00;;;;;;6160004;29;1470;-75
2023/07/03 17:43:17;;;;;;;;;;;26.20;55.30;;;;;;6162729;28;2318;-72
2023/07/03 17:46:18;;;;;;;;;;;26.30;55.40;;;;;;6158628;29;3121;-73
2023/07/03 17:49:23;;;;;;;;;;;26.40;55.80;;;;;;6151763;28;2919;-73
2023/07/03 17:52:24;;;;;;;;;;;26.70;55.60;;;;;;6152566;29;2117;-75
2023/07/03 17:55:26;;;;;;;;;;;26.50;55.10;;;;;;6153869;29;1502;-74
2023/07/03 17:58:28;;;;;;;;;;;26.10;55.50;;;;;;6152728;29;1696;-74
2023/07/03 18:01:29;;;;;;;;;;;25.80;56.30;;;;;;6119681;29;1022218;-73
2023/07/03 18:04:32;;;;;;;;;;;25.60;56.20;;;;;;6154997;29;2462;-74
2023/07/03 18:07:34;;;;;;;;;;;25.50;56.60;;;;;;6153909;29;1818;-73
2023/07/03 18:10:36;;;;;;;;;;;25.30;56.90;;;;;;6154530;29;1697;-74
2023/07/03 18:13:38;;;;;;;;;;;25.20;57.10;;;;;;6153370;28;1775;-70
2023/07/03 18:16:39;;;;;;;;;;;25.10;57.30;;;;;;6148001;29;2918;-68
2023/07/03 18:19:42;;;;;;;;;;;25.00;57.90;;;;;;6153217;29;1916;-68
2023/07/03 18:22:44;;;;;;;;;;;24.80;58.60;;;;;;6154873;29;2034;-68
2023/07/03 18:25:47;;;;;;;;;;;24.80;58.10;;;;;;6151184;28;1989;-69
2023/07/03 18:28:48;;;;;;;;;;;24.70;58.50;;;;;;6145727;29;2845;-70
2023/07/03 18:31:50;;;;;;;;;;;24.60;58.80;;;;;;6152822;29;2455;-70
2023/07/03 18:34:53;;;;;;;;;;;24.60;59.50;;;;;;6153714;29;2058;-70
2023/07/03 18:37:55;;;;;;;;;;;24.40;59.80;;;;;;6150928;28;1383;-68
2023/07/03 18:41:02;;;;;;;;;;;24.40;59.70;;;;;;6153975;28;1114;-68
2023/07/03 18:44:04;;;;;;;;;;;24.40;60.20;;;;;;6151726;28;2017;-69
2023/07/03 18:47:06;;;;;;;;;;;24.20;60.50;;;;;;6153659;29;1505;-69
2023/07/03 18:50:10;;;;;;;;;;;24.20;60.60;;;;;;6152860;29;1090;-75
2023/07/03 18:53:12;;;;;;;;;;;24.00;60.90;;;;;;6152334;29;1011;-74
2023/07/03 18:56:15;;;;;;;;;;;24.00;61.20;;;;;;6150648;29;1458;-74
2023/07/03 18:59:17;;;;;;;;;;;23.90;61.30;;;;;;6153196;29;1306;-75
2023/07/03 19:02:19;;;;;;;;;;;23.80;61.90;;;;;;6151073;29;1379;-75
2023/07/03 19:05:22;;;;;;;;;;;23.80;62.20;;;;;;6153162;28;1981;-74
2023/07/03 19:08:24;;;;;;;;;;;23.60;62.60;;;;;;6151781;29;1455;-76
2023/07/03 19:11:26;;;;;;;;;;;23.60;62.70;;;;;;6153079;29;1115;-74
2023/07/03 19:14:28;;;;;;;;;;;23.60;62.80;;;;;;6152541;29;1090;-75
2023/07/03 19:17:30;;;;;;;;;;;23.60;62.90;;;;;;6151828;28;1459;-73
2023/07/03 19:20:33;;;;;;;;;;;23.60;63.00;;;;;;6129410;29;1468;-75
2023/07/03 19:23:36;;;;;;;;;;;23.50;63.20;;;;;;6129412;29;1954;-76
2023/07/03 19:26:38;;;;;;;;;;;23.50;63.70;;;;;;6149350;28;1438;-73
2023/07/03 19:29:40;;;;;;;;;;;23.40;63.90;;;;;;6153380;29;1242;-75
2023/07/03 19:32:41;;;;;;;;;;;23.30;64.20;;;;;;6153119;29;1159;-74
2023/07/03 19:35:44;;;;;;;;;;;23.30;64.40;;;;;;6153297;29;1430;-75
2023/07/03 19:38:46;;;;;;;;;;;23.20;64.70;;;;;;6153228;29;1462;-77
2023/07/03 19:41:48;;;;;;;;;;;23.20;64.90;;;;;;6158563;29;1475;-75
2023/07/03 19:44:50;;;;;;;;;;;23.00;65.90;;;;;;6160351;29;1988;-75
2023/07/03 19:47:52;;;;;;;;;;;23.00;66.20;;;;;;6157028;29;1567;-77
2023/07/03 19:50:55;;;;;;;;;;;22.90;66.40;;;;;;6156209;28;1095;-75
2023/07/03 19:53:58;;;;;;;;;;;22.90;67.00;;;;;;6155808;28;1447;-74
2023/07/03 19:57:00;;;;;;;;;;;22.90;67.30;;;;;;6163109;29;1772;-74
2023/07/03 20:00:04;;;;;;;;;;;22.90;67.30;;;;;;6164637;29;1759;-77
2023/07/03 20:03:06;;;;;;;;;;;22.80;67.50;;;;;;6134964;28;2332;-75
2023/07/03 20:06:14;;;;;;;;;;;22.80;67.80;;;;;;6139660;29;1980;-76
2023/07/03 20:09:15;;;;;;;;;;;22.80;67.90;;;;;;6157030;29;1732;-76
2023/07/03 20:12:17;;;;;;;;;;;22.80;68.30;;;;;;6159378;29;1096;-76
2023/07/03 20:15:20;;;;;;;;;;;22.70;68.70;;;;;;6172167;29;1063;-77
2023/07/03 20:18:23;;;;;;;;;;;22.70;69.00;;;;;;6174903;29;1808;-76
2023/07/03 20:21:26;;;;;;;;;;;22.60;69.30;;;;;;6173966;28;1032;-76
2023/07/03 20:24:28;;;;;;;;;;;22.60;69.70;;;;;;6170671;28;1989;-75
2023/07/03 20:27:30;;;;;;;;;;;22.50;70.00;;;;;;6171156;29;1403;-75
2023/07/03 20:30:31;;;;;;;;;;;22.40;70.50;;;;;;6171235;29;1403;-74
2023/07/03 20:33:33;;;;;;;;;;;22.40;70.90;;;;;;6160047;29;1074;-72
2023/07/03 20:36:37;;;;;;;;;;;22.30;71.20;;;;;;6154442;28;1603;-75
2023/07/03 20:39:38;;;;;;;;;;;22.20;71.90;;;;;;6137729;29;2990;-75
2023/07/03 20:42:40;;;;;;;;;;;22.10;72.20;;;;;;6166140;29;1509;-76
2023/07/03 20:45:42;;;;;;;;;;;22.10;72.70;;;;;;6168512;29;1970;-75
2023/07/03 20:48:44;;;;;;;;;;;22.10;72.80;;;;;;6173816;29;1545;-75
2023/07/03 20:51:52;;;;;;;;;;;22.10;73.00;;;;;;6171792;29;1090;-76
2023/07/03 20:55:04;;;;;;;;;;;22.00;73.50;;;;;;6175245;29;1450;-77
2023/07/03 20:58:06;;;;;;;;;;;22.10;73.60;;;;;;6157315;29;1520;-75
2023/07/03 21:01:13;;;;;;;;;;;22.10;73.60;;;;;;6134132;29;1268;-74
2023/07/03 21:04:14;;;;;;;;;;;22.00;73.80;;;;;;6133780;29;1899;-74
2023/07/03 21:07:20;;;;;;;;;;;22.10;74.20;;;;;;6144119;29;1490;-76
2023/07/03 21:10:22;;;;;;;;;;;22.10;74.00;;;;;;6158331;28;1031;-75
2023/07/03 21:13:24;;;;;;;;;;;22.00;74.40;;;;;;6156901;28;1020;-76
2023/07/03 21:16:26;;;;;;;;;;;22.10;74.50;;;;;;6155887;29;1481;-76
2023/07/03 21:19:28;;;;;;;;;;;22.00;74.60;;;;;;6156902;29;1107;-74
2023/07/03 21:22:31;;;;;;;;;;;22.10;74.80;;;;;;6155628;29;1400;-75
2023/07/03 21:25:33;;;;;;;;;;;22.00;75.10;;;;;;6155751;29;1989;-74
2023/07/03 21:28:35;;;;;;;;;;;22.00;75.10;;;;;;6156153;29;1481;-75
